Time,TemperatureF,DewpointF,PressureIn,WindDirection,WindDirectionDegrees,WindSpeedMPH,WindSpeedGustMPH,Humidity,HourlyPrecipIn,Conditions,Clouds,dailyrainin,SoftwareType,DateUTC
2013-06-27 00:00:00,70.1,68.3,29.89,North,355,0.0,0.0,94,0.00,,,0.06,Wunderground v.1.15,2013-06-27 04:00:00,
2013-06-27 00:05:00,70.0,68.2,29.89,North,355,0.0,0.0,94,0.00,,,0.06,Wunderground v.1.15,2013-06-27 04:05:00,
2013-06-27 00:10:00,69.9,68.1,29.89,North,355,0.0,0.0,94,0.00,,,0.06,Wunderground v.1.15,2013-06-27 04:10:00,
2013-06-27 00:14:00,69.9,68.1,29.89,North,355,0.0,0.0,94,0.00,,,0.06,Wunderground v.1.15,2013-06-27 04:14:00,
2013-06-27 00:20:00,69.7,67.9,29.89,North,355,0.0,0.0,94,0.00,,,0.06,Wunderground v.1.15,2013-06-27 04:20:00,
2013-06-27 00:25:00,69.6,68.1,29.88,North,355,0.0,0.0,95,0.00,,,0.06,Wunderground v.1.15,2013-06-27 04:25:00,
2013-06-27 00:35:00,69.3,67.8,29.89,North,360,0.0,0.0,95,0.00,,,0.06,Wunderground v.1.15,2013-06-27 04:35:00,
2013-06-27 00:45:00,69.1,67.6,29.89,North,360,0.0,0.0,95,0.00,,,0.06,Wunderground v.1.15,2013-06-27 04:45:00,
2013-06-27 00:55:00,68.9,67.7,29.89,North,360,0.0,0.0,96,0.00,,,0.06,Wunderground v.1.15,2013-06-27 04:55:00,
2013-06-27 01:00:00,68.9,67.7,29.89,North,360,0.0,0.0,96,0.00,,,0.06,Wunderground v.1.15,2013-06-27 05:00:00,
2013-06-27 01:05:00,68.9,67.7,29.89,North,360,0.0,0.0,96,0.00,,,0.06,Wunderground v.1.15,2013-06-27 05:05:00,
2013-06-27 01:15:00,68.8,67.3,29.88,North,360,0.0,0.0,95,0.00,,,0.06,Wunderground v.1.15,2013-06-27 05:15:00,
2013-06-27 01:20:00,68.9,67.7,29.88,North,360,0.0,0.0,96,0.00,,,0.06,Wunderground v.1.15,2013-06-27 05:20:00,
2013-06-27 01:30:00,69.1,67.6,29.88,North,360,0.0,0.0,95,0.00,,,0.06,Wunderground v.1.15,2013-06-27 05:30:00,
2013-06-27 01:35:00,69.2,67.7,29.87,North,360,0.0,0.0,95,0.00,,,0.06,Wunderground v.1.15,2013-06-27 05:35:00,
2013-06-27 01:45:00,69.2,67.7,29.85,North,360,0.0,0.0,95,0.00,,,0.06,Wunderground v.1.15,2013-06-27 05:45:00,
2013-06-27 01:55:00,69.3,67.5,29.85,North,360,0.0,0.0,94,0.00,,,0.00,Wunderground v.1.15,2013-06-27 05:55:00,
2013-06-27 02:00:00,69.3,67.5,29.86,North,360,0.0,0.0,94,0.00,,,0.00,Wunderground v.1.15,2013-06-27 06:00:00,
2013-06-27 02:05:00,69.3,67.5,29.85,North,360,0.0,0.0,94,0.00,,,0.00,Wunderground v.1.15,2013-06-27 06:05:00,
2013-06-27 02:14:00,69.2,67.4,29.85,North,360,0.0,0.0,94,0.00,,,0.00,Wunderground v.1.15,2013-06-27 06:14:00,
2013-06-27 02:20:00,69.2,67.4,29.84,North,360,0.0,0.0,94,0.00,,,0.00,Wunderground v.1.15,2013-06-27 06:20:00,
2013-06-27 02:25:00,69.2,67.4,29.84,North,360,0.0,0.0,94,0.00,,,0.00,Wunderground v.1.15,2013-06-27 06:25:00,
2013-06-27 02:35:00,69.1,67.0,29.84,North,360,0.0,0.0,93,0.00,,,0.00,Wunderground v.1.15,2013-06-27 06:35:00,
2013-06-27 02:45:00,69.2,66.5,29.84,SSW,192,0.0,0.0,91,0.00,,,0.00,Wunderground v.1.15,2013-06-27 06:45:00,
2013-06-27 02:55:00,69.6,66.9,29.83,SSW,192,0.0,0.0,91,0.00,,,0.00,Wunderground v.1.15,2013-06-27 06:55:00,
2013-06-27 03:00:00,69.6,66.5,29.83,SSW,192,0.0,0.0,90,0.00,,,0.00,Wunderground v.1.15,2013-06-27 07:00:00,
2013-06-27 03:05:00,69.4,66.7,29.83,SSW,192,0.0,5.0,91,0.00,,,0.00,Wunderground v.1.15,2013-06-27 07:05:00,
2013-06-27 03:10:00,69.3,66.6,29.83,SSW,192,0.0,5.0,91,0.00,,,0.00,Wunderground v.1.15,2013-06-27 07:10:00,
2013-06-27 03:20:00,69.1,66.4,29.82,SSW,192,0.0,5.0,91,0.00,,,0.00,Wunderground v.1.15,2013-06-27 07:20:00,
2013-06-27 03:25:00,69.1,66.4,29.82,SSW,192,0.0,5.0,91,0.00,,,0.00,Wunderground v.1.15,2013-06-27 07:25:00,
2013-06-27 03:35:00,69.2,66.1,29.81,SSW,192,0.0,5.0,90,0.00,,,0.00,Wunderground v.1.15,2013-06-27 07:35:00,
2013-06-27 03:40:00,69.2,66.1,29.80,SSW,192,0.0,5.0,90,0.00,,,0.00,Wunderground v.1.15,2013-06-27 07:40:00,
2013-06-27 03:50:00,69.4,66.0,29.81,SSW,192,0.0,5.0,89,0.00,,,0.00,Wunderground v.1.15,2013-06-27 07:50:00,
2013-06-27 04:00:00,69.5,66.4,29.83,North,5,1.0,7.0,90,0.00,,,0.00,Wunderground v.1.15,2013-06-27 08:00:00,
2013-06-27 04:05:00,68.6,65.2,29.84,ESE,117,4.0,7.0,89,0.00,,,0.00,Wunderground v.1.15,2013-06-27 08:05:00,
2013-06-27 04:15:00,66.7,64.0,29.86,North,360,7.0,7.0,91,0.56,,,0.02,Wunderground v.1.15,2013-06-27 08:15:00,
2013-06-27 04:25:00,65.2,63.4,29.85,NNW,338,2.0,5.0,94,0.18,,,0.10,Wunderground v.1.15,2013-06-27 08:25:00,
2013-06-27 04:30:00,64.7,63.2,29.85,NE,34,1.0,1.0,95,0.07,,,0.10,Wunderground v.1.15,2013-06-27 08:30:00,
2013-06-27 04:40:00,64.3,63.1,29.85,NE,36,0.0,3.0,96,0.10,,,0.12,Wunderground v.1.15,2013-06-27 08:40:00,
2013-06-27 04:49:00,63.9,62.7,29.85,North,360,0.0,3.0,96,0.04,,,0.12,Wunderground v.1.15,2013-06-27 08:49:00,
2013-06-27 04:55:00,63.9,63.0,29.86,North,360,0.0,3.0,97,0.00,,,0.12,Wunderground v.1.15,2013-06-27 08:55:00,
2013-06-27 05:00:00,63.8,62.9,29.86,North,360,0.0,3.0,97,0.00,,,0.12,Wunderground v.1.15,2013-06-27 09:00:00,
2013-06-27 05:05:00,63.7,62.8,29.86,North,360,0.0,6.0,97,0.00,,,0.12,Wunderground v.1.15,2013-06-27 09:05:00,
2013-06-27 05:14:00,63.6,63.0,29.86,North,360,0.0,6.0,98,0.00,,,0.12,Wunderground v.1.15,2013-06-27 09:14:00,
2013-06-27 05:20:00,63.5,62.9,29.86,North,360,0.0,6.0,98,0.00,,,0.12,Wunderground v.1.15,2013-06-27 09:20:00,
2013-06-27 05:25:00,63.2,62.6,29.86,North,360,0.0,6.0,98,0.00,,,0.12,Wunderground v.1.15,2013-06-27 09:25:00,
2013-06-27 05:35:00,62.9,62.3,29.85,North,360,0.0,6.0,98,0.00,,,0.12,Wunderground v.1.15,2013-06-27 09:35:00,
2013-06-27 05:40:00,62.9,62.3,29.84,North,360,0.0,6.0,98,0.00,,,0.13,Wunderground v.1.15,2013-06-27 09:40:00,
2013-06-27 05:45:00,63.0,62.4,29.84,North,360,0.0,6.0,98,0.00,,,0.13,Wunderground v.1.15,2013-06-27 09:45:00,
2013-06-27 05:55:00,62.8,62.2,29.84,North,360,0.0,6.0,98,0.00,,,0.13,Wunderground v.1.15,2013-06-27 09:55:00,
2013-06-27 06:00:00,62.8,62.2,29.85,North,360,0.0,6.0,98,0.00,,,0.13,Wunderground v.1.15,2013-06-27 10:00:00,
2013-06-27 06:05:00,62.6,62.0,29.85,North,360,0.0,6.0,98,0.00,,,0.13,Wunderground v.1.15,2013-06-27 10:05:00,
2013-06-27 06:15:00,62.5,61.9,29.85,North,360,0.0,0.0,98,0.00,,,0.13,Wunderground v.1.15,2013-06-27 10:15:00,
2013-06-27 06:20:00,62.6,62.0,29.85,North,360,0.0,0.0,98,0.00,,,0.13,Wunderground v.1.15,2013-06-27 10:20:00,
2013-06-27 06:30:00,62.5,61.9,29.84,North,360,0.0,0.0,98,0.00,,,0.13,Wunderground v.1.15,2013-06-27 10:30:00,
2013-06-27 06:35:00,62.4,62.1,29.84,North,360,0.0,0.0,99,0.00,,,0.13,Wunderground v.1.15,2013-06-27 10:35:00,
2013-06-27 06:45:00,62.3,62.0,29.84,North,360,0.0,0.0,99,0.00,,,0.13,Wunderground v.1.15,2013-06-27 10:45:00,
2013-06-27 06:55:00,62.1,61.5,29.83,North,360,0.0,0.0,98,0.00,,,0.13,Wunderground v.1.15,2013-06-27 10:55:00,
2013-06-27 07:05:00,62.2,61.6,29.83,North,360,0.0,0.0,98,0.00,,,0.13,Wunderground v.1.15,2013-06-27 11:05:00,
2013-06-27 07:14:00,62.2,61.6,29.82,North,360,0.0,0.0,98,0.00,,,0.13,Wunderground v.1.15,2013-06-27 11:14:00,
2013-06-27 07:20:00,62.3,62.0,29.83,North,360,0.0,0.0,99,0.00,,,0.13,Wunderground v.1.15,2013-06-27 11:20:00,
2013-06-27 07:25:00,62.4,62.1,29.82,North,360,0.0,0.0,99,0.00,,,0.13,Wunderground v.1.15,2013-06-27 11:25:00,
2013-06-27 07:35:00,62.4,62.1,29.83,North,360,0.0,0.0,99,0.00,,,0.13,Wunderground v.1.15,2013-06-27 11:35:00,
2013-06-27 07:45:00,62.7,62.4,29.82,North,360,0.0,0.0,99,0.00,,,0.13,Wunderground v.1.15,2013-06-27 11:45:00,
2013-06-27 07:50:00,62.7,62.4,29.83,North,360,0.0,0.0,99,0.00,,,0.13,Wunderground v.1.15,2013-06-27 11:50:00,
2013-06-27 08:00:00,63.0,62.7,29.83,North,360,0.0,0.0,99,0.00,,,0.13,Wunderground v.1.15,2013-06-27 12:00:00,
2013-06-27 08:05:00,63.2,62.9,29.83,North,360,0.0,0.0,99,0.00,,,0.13,Wunderground v.1.15,2013-06-27 12:05:00,
2013-06-27 08:15:00,63.3,63.0,29.83,North,360,0.0,0.0,99,0.00,,,0.13,Wunderground v.1.15,2013-06-27 12:15:00,
2013-06-27 08:20:00,63.3,63.0,29.83,North,360,0.0,0.0,99,0.00,,,0.13,Wunderground v.1.15,2013-06-27 12:20:00,
2013-06-27 08:29:00,63.7,63.4,29.83,North,360,0.0,0.0,99,0.00,,,0.13,Wunderground v.1.15,2013-06-27 12:29:00,
2013-06-27 08:35:00,63.9,63.6,29.83,North,360,0.0,0.0,99,0.00,,,0.13,Wunderground v.1.15,2013-06-27 12:35:00,
2013-06-27 08:40:00,64.2,63.9,29.83,North,360,0.0,0.0,99,0.00,,,0.13,Wunderground v.1.15,2013-06-27 12:40:00,
2013-06-27 08:50:00,64.6,64.3,29.82,North,360,0.0,0.0,99,0.00,,,0.13,Wunderground v.1.15,2013-06-27 12:50:00,
2013-06-27 09:00:00,64.9,64.6,29.82,North,360,0.0,0.0,99,0.00,,,0.13,Wunderground v.1.15,2013-06-27 13:00:00,
2013-06-27 09:05:00,65.2,64.9,29.82,North,360,0.0,0.0,99,0.00,,,0.13,Wunderground v.1.15,2013-06-27 13:05:00,
2013-06-27 09:14:00,65.4,65.1,29.82,North,360,0.0,0.0,99,0.00,,,0.13,Wunderground v.1.15,2013-06-27 13:14:00,
2013-06-27 09:20:00,65.4,65.1,29.81,North,360,0.0,0.0,99,0.00,,,0.13,Wunderground v.1.15,2013-06-27 13:20:00,
2013-06-27 09:25:00,65.5,65.2,29.82,North,360,0.0,0.0,99,0.00,,,0.13,Wunderground v.1.15,2013-06-27 13:25:00,
2013-06-27 09:35:00,66.0,65.4,29.81,North,360,0.0,0.0,98,0.00,,,0.13,Wunderground v.1.15,2013-06-27 13:35:00,
2013-06-27 09:44:00,66.6,65.1,29.81,WSW,246,0.0,2.0,95,0.00,,,0.13,Wunderground v.1.15,2013-06-27 13:44:00,
2013-06-27 09:49:00,67.0,65.5,29.81,South,183,0.0,0.0,95,0.00,,,0.13,Wunderground v.1.15,2013-06-27 13:49:00,
2013-06-27 09:55:00,67.4,65.9,29.81,South,183,0.0,0.0,95,0.00,,,0.13,Wunderground v.1.15,2013-06-27 13:55:00,
2013-06-27 10:05:00,68.1,66.6,29.81,South,183,0.0,4.0,95,0.00,,,0.13,Wunderground v.1.15,2013-06-27 14:05:00,
2013-06-27 10:15:00,68.6,66.2,29.80,South,183,0.0,4.0,92,0.00,,,0.13,Wunderground v.1.15,2013-06-27 14:15:00,
2013-06-27 10:24:00,69.4,66.7,29.80,SSE,159,0.0,4.0,91,0.00,,,0.13,Wunderground v.1.15,2013-06-27 14:24:00,
2013-06-27 10:30:00,69.7,66.6,29.81,SSE,159,0.0,4.0,90,0.00,,,0.13,Wunderground v.1.15,2013-06-27 14:30:00,
2013-06-27 10:39:00,70.6,68.2,29.80,SSE,159,0.0,4.0,92,0.00,,,0.13,Wunderground v.1.15,2013-06-27 14:39:00,
2013-06-27 10:44:00,70.9,68.1,29.81,SSE,159,0.0,4.0,91,0.00,,,0.13,Wunderground v.1.15,2013-06-27 14:44:00,
2013-06-27 10:54:00,71.3,69.2,29.81,SSE,159,0.0,4.0,93,0.00,,,0.13,Wunderground v.1.15,2013-06-27 14:54:00,
2013-06-27 11:04:00,71.4,68.0,29.80,NNW,344,0.0,4.0,89,0.00,,,0.13,Wunderground v.1.15,2013-06-27 15:04:00,
2013-06-27 11:14:00,71.5,68.1,29.80,NW,310,0.0,3.0,89,0.00,,,0.13,Wunderground v.1.15,2013-06-27 15:14:00,
2013-06-27 11:19:00,72.1,69.3,29.80,NNE,19,0.0,3.0,91,0.00,,,0.13,Wunderground v.1.15,2013-06-27 15:19:00,
2013-06-27 11:29:00,72.9,68.8,29.80,North,355,0.0,3.0,87,0.00,,,0.13,Wunderground v.1.15,2013-06-27 15:29:00,
2013-06-27 11:39:00,73.3,70.8,29.80,North,355,0.0,3.0,92,0.00,,,0.13,Wunderground v.1.15,2013-06-27 15:39:00,
2013-06-27 11:49:00,74.2,69.7,29.80,North,355,0.0,3.0,86,0.00,,,0.13,Wunderground v.1.15,2013-06-27 15:49:00,
2013-06-27 11:54:00,75.1,72.9,29.80,North,355,0.0,3.0,93,0.00,,,0.13,Wunderground v.1.15,2013-06-27 15:54:00,
2013-06-27 12:05:00,76.1,70.9,29.80,North,11,0.0,5.0,84,0.00,,,0.13,Wunderground v.1.15,2013-06-27 16:05:00,
2013-06-27 12:14:00,76.6,72.4,29.80,North,5,0.0,5.0,87,0.00,,,0.13,Wunderground v.1.15,2013-06-27 16:14:00,
2013-06-27 12:19:00,76.7,72.5,29.80,NNW,345,0.0,5.0,87,0.00,,,0.13,Wunderground v.1.15,2013-06-27 16:19:00,
2013-06-27 12:24:00,77.8,74.0,29.80,North,355,1.0,5.0,88,0.00,,,0.13,Wunderground v.1.15,2013-06-27 16:24:00,
2013-06-27 12:34:00,77.3,73.1,29.80,NNW,341,1.0,5.0,87,0.00,,,0.13,Wunderground v.1.15,2013-06-27 16:34:00,
2013-06-27 12:44:00,76.9,72.4,29.80,NNW,341,0.0,5.0,86,0.00,,,0.13,Wunderground v.1.15,2013-06-27 16:44:00,
2013-06-27 12:50:00,77.7,74.2,29.80,NNW,341,0.0,5.0,89,0.00,,,0.13,Wunderground v.1.15,2013-06-27 16:50:00,
2013-06-27 13:00:00,78.5,74.0,29.79,NW,322,1.0,1.0,86,0.00,,,0.13,Wunderground v.1.15,2013-06-27 17:00:00,
2013-06-27 13:05:00,79.4,74.5,29.79,NNW,346,1.0,5.0,85,0.00,,,0.13,Wunderground v.1.15,2013-06-27 17:05:00,
2013-06-27 13:14:00,79.7,74.8,29.79,NNW,342,2.0,6.0,85,0.00,,,0.13,Wunderground v.1.15,2013-06-27 17:14:00,
2013-06-27 13:19:00,80.2,74.2,29.79,North,355,2.0,2.0,82,0.00,,,0.13,Wunderground v.1.15,2013-06-27 17:19:00,
2013-06-27 13:29:00,79.9,73.9,29.78,North,350,3.0,6.0,82,0.00,,,0.13,Wunderground v.1.15,2013-06-27 17:29:00,
2013-06-27 13:39:00,80.7,75.8,29.78,NNW,346,3.0,3.0,85,0.00,,,0.13,Wunderground v.1.15,2013-06-27 17:39:00,
2013-06-27 13:44:00,80.6,73.9,29.79,North,355,4.0,4.0,80,0.00,,,0.13,Wunderground v.1.15,2013-06-27 17:44:00,
2013-06-27 13:54:00,80.3,74.7,29.78,NNW,345,4.0,6.0,83,0.00,,,0.13,Wunderground v.1.15,2013-06-27 17:54:00,
2013-06-27 14:05:00,80.1,75.9,29.77,NNW,345,2.0,8.0,87,0.00,,,0.13,Wunderground v.1.15,2013-06-27 18:05:00,
2013-06-27 14:14:00,80.4,73.7,29.77,North,355,2.0,8.0,80,0.00,,,0.13,Wunderground v.1.15,2013-06-27 18:14:00,
2013-06-27 14:24:00,80.3,74.3,29.77,NNW,344,3.0,8.0,82,0.00,,,0.13,Wunderground v.1.15,2013-06-27 18:24:00,
2013-06-27 14:34:00,81.0,75.3,29.77,North,349,2.0,8.0,83,0.00,,,0.13,Wunderground v.1.15,2013-06-27 18:34:00,
2013-06-27 14:39:00,81.5,75.1,29.77,WNW,298,1.0,8.0,81,0.00,,,0.13,Wunderground v.1.15,2013-06-27 18:39:00,
2013-06-27 14:49:00,81.8,75.4,29.76,North,349,3.0,3.0,81,0.00,,,0.13,Wunderground v.1.15,2013-06-27 18:49:00,
2013-06-27 14:54:00,81.8,74.6,29.76,NNW,332,2.0,8.0,79,0.00,,,0.13,Wunderground v.1.15,2013-06-27 18:54:00,
2013-06-27 15:04:00,82.3,75.1,29.75,NNW,348,4.0,8.0,79,0.00,,,0.13,Wunderground v.1.15,2013-06-27 19:04:00,
2013-06-27 15:14:00,82.8,75.2,29.75,NNW,342,2.0,5.0,78,0.00,,,0.13,Wunderground v.1.15,2013-06-27 19:14:00,
2013-06-27 15:19:00,82.6,74.7,29.75,NNW,345,2.0,2.0,77,0.00,,,0.13,Wunderground v.1.15,2013-06-27 19:19:00,
2013-06-27 15:24:00,82.9,75.7,29.75,North,360,2.0,8.0,79,0.00,,,0.13,Wunderground v.1.15,2013-06-27 19:24:00,
2013-06-27 15:34:00,83.1,74.4,29.75,NNW,343,2.0,8.0,75,0.00,,,0.13,Wunderground v.1.15,2013-06-27 19:34:00,
2013-06-27 15:44:00,83.8,73.8,29.75,North,350,5.0,5.0,72,0.00,,,0.13,Wunderground v.1.15,2013-06-27 19:44:00,
2013-06-27 15:49:00,83.7,74.5,29.75,North,355,4.0,8.0,74,0.00,,,0.13,Wunderground v.1.15,2013-06-27 19:49:00,
2013-06-27 15:54:00,83.0,73.0,29.75,North,355,2.0,8.0,72,0.00,,,0.13,Wunderground v.1.15,2013-06-27 19:54:00,
2013-06-27 16:05:00,81.8,73.9,29.74,NNW,344,1.0,2.0,77,0.00,,,0.13,Wunderground v.1.15,2013-06-27 20:05:00,
2013-06-27 16:14:00,82.9,75.3,29.73,North,5,1.0,10.0,78,0.00,,,0.13,Wunderground v.1.15,2013-06-27 20:14:00,
2013-06-27 16:24:00,83.8,75.0,29.73,North,360,1.0,10.0,75,0.00,,,0.13,Wunderground v.1.15,2013-06-27 20:24:00,
2013-06-27 16:39:00,80.4,72.9,29.73,North,360,0.0,10.0,78,0.00,,,0.13,Wunderground v.1.15,2013-06-27 20:39:00,
2013-06-27 16:44:00,79.2,72.1,29.72,NNE,13,0.0,10.0,79,0.00,,,0.13,Wunderground v.1.15,2013-06-27 20:44:00,
2013-06-27 16:54:00,77.4,71.5,29.74,North,349,0.0,2.0,82,0.00,,,0.13,Wunderground v.1.15,2013-06-27 20:54:00,
2013-06-27 16:59:00,76.7,71.5,29.73,NNE,33,1.0,10.0,84,0.00,,,0.13,Wunderground v.1.15,2013-06-27 20:59:00,
2013-06-27 17:05:00,76.0,71.2,29.73,NNE,22,1.0,10.0,85,0.00,,,0.13,Wunderground v.1.15,2013-06-27 21:05:00,
2013-06-27 17:14:00,74.9,70.8,29.73,NNE,26,2.0,8.0,87,0.00,,,0.13,Wunderground v.1.15,2013-06-27 21:14:00,
2013-06-27 17:20:00,74.4,70.6,29.74,North,9,3.0,3.0,88,0.00,,,0.13,Wunderground v.1.15,2013-06-27 21:20:00,
2013-06-27 17:30:00,72.9,69.1,29.74,North,5,4.0,8.0,88,0.00,,,0.13,Wunderground v.1.15,2013-06-27 21:30:00,
2013-06-27 17:40:00,71.1,67.7,29.73,North,355,4.0,4.0,89,0.00,,,0.14,Wunderground v.1.15,2013-06-27 21:40:00,
2013-06-27 17:45:00,70.3,67.5,29.72,NNE,27,3.0,8.0,91,0.07,,,0.15,Wunderground v.1.15,2013-06-27 21:45:00,
2013-06-27 18:00:00,70.5,68.1,29.72,North,360,3.0,8.0,92,0.00,,,0.15,Wunderground v.1.15,2013-06-27 22:00:00,
2013-06-27 18:05:00,70.6,67.8,29.72,North,10,3.0,13.0,91,0.00,,,0.15,Wunderground v.1.15,2013-06-27 22:05:00,
2013-06-27 18:15:00,70.2,67.4,29.73,North,360,2.0,3.0,91,0.00,,,0.15,Wunderground v.1.15,2013-06-27 22:15:00,
2013-06-27 18:20:00,70.0,67.6,29.72,North,360,2.0,2.0,92,0.00,,,0.15,Wunderground v.1.15,2013-06-27 22:20:00,
2013-06-27 18:25:00,69.9,67.5,29.73,NNE,15,2.0,5.0,92,0.00,,,0.15,Wunderground v.1.15,2013-06-27 22:25:00,
2013-06-27 18:35:00,69.8,67.4,29.72,North,5,2.0,13.0,92,0.00,,,0.15,Wunderground v.1.15,2013-06-27 22:35:00,
2013-06-27 18:45:00,69.8,67.4,29.72,North,5,2.0,13.0,92,0.00,,,0.15,Wunderground v.1.15,2013-06-27 22:45:00,
2013-06-27 18:55:00,69.9,67.8,29.72,NNE,15,2.0,13.0,93,0.00,,,0.15,Wunderground v.1.15,2013-06-27 22:55:00,
2013-06-27 19:00:00,70.1,68.0,29.73,NNE,18,2.0,2.0,93,0.00,,,0.15,Wunderground v.1.15,2013-06-27 23:00:00,
2013-06-27 19:05:00,70.2,68.1,29.72,North,355,2.0,7.0,93,0.00,,,0.15,Wunderground v.1.15,2013-06-27 23:05:00,
2013-06-27 19:15:00,70.8,68.7,29.73,North,355,1.0,7.0,93,0.00,,,0.15,Wunderground v.1.15,2013-06-27 23:15:00,
2013-06-27 19:20:00,71.0,68.6,29.73,NNW,340,1.0,7.0,92,0.00,,,0.15,Wunderground v.1.15,2013-06-27 23:20:00,
2013-06-27 19:25:00,71.2,68.8,29.73,North,9,1.0,7.0,92,0.00,,,0.15,Wunderground v.1.15,2013-06-27 23:25:00,
2013-06-27 19:40:00,71.4,68.6,29.73,North,9,0.0,7.0,91,0.00,,,0.15,Wunderground v.1.15,2013-06-27 23:40:00,
2013-06-27 19:50:00,71.3,68.5,29.74,North,9,0.0,7.0,91,0.00,,,0.15,Wunderground v.1.15,2013-06-27 23:50:00,
2013-06-27 19:55:00,71.3,68.5,29.74,North,9,0.0,7.0,91,0.00,,,0.15,Wunderground v.1.15,2013-06-27 23:55:00,
2013-06-27 20:05:00,71.2,68.8,29.73,North,9,0.0,9.0,92,0.00,,,0.15,Wunderground v.1.15,2013-06-28 00:05:00,
2013-06-27 20:20:00,70.8,68.7,29.73,North,9,0.0,9.0,93,0.00,,,0.15,Wunderground v.1.15,2013-06-28 00:20:00,
2013-06-27 20:25:00,70.7,68.6,29.74,North,9,0.0,9.0,93,0.00,,,0.15,Wunderground v.1.15,2013-06-28 00:25:00,
2013-06-27 20:35:00,70.5,68.7,29.74,North,9,0.0,9.0,94,0.00,,,0.15,Wunderground v.1.15,2013-06-28 00:35:00,
2013-06-27 20:45:00,70.4,68.9,29.74,North,9,0.0,9.0,95,0.00,,,0.15,Wunderground v.1.15,2013-06-28 00:45:00,
2013-06-27 21:05:00,70.4,68.9,29.73,North,9,0.0,9.0,95,0.00,,,0.15,Wunderground v.1.15,2013-06-28 01:05:00,
2013-06-27 21:15:00,70.5,68.7,29.74,North,9,1.0,2.0,94,0.00,,,0.15,Wunderground v.1.15,2013-06-28 01:15:00,
2013-06-27 21:20:00,70.6,68.8,29.74,North,9,0.0,2.0,94,0.00,,,0.15,Wunderground v.1.15,2013-06-28 01:20:00,
2013-06-27 21:25:00,70.7,68.6,29.75,North,9,0.0,2.0,93,0.00,,,0.15,Wunderground v.1.15,2013-06-28 01:25:00,
2013-06-27 21:30:00,70.8,69.0,29.75,North,9,0.0,2.0,94,0.00,,,0.15,Wunderground v.1.15,2013-06-28 01:30:00,
2013-06-27 21:40:00,71.0,68.9,29.75,North,9,0.0,2.0,93,0.00,,,0.15,Wunderground v.1.15,2013-06-28 01:40:00,
2013-06-27 21:50:00,71.1,69.3,29.75,North,9,0.0,2.0,94,0.00,,,0.15,Wunderground v.1.15,2013-06-28 01:50:00,
2013-06-27 22:00:00,71.0,69.2,29.76,North,9,0.0,2.0,94,0.00,,,0.15,Wunderground v.1.15,2013-06-28 02:00:00,
2013-06-27 22:05:00,70.9,69.1,29.76,North,9,0.0,2.0,94,0.00,,,0.15,Wunderground v.1.15,2013-06-28 02:05:00,
2013-06-27 22:15:00,71.0,69.5,29.76,North,9,0.0,1.0,95,0.00,,,0.15,Wunderground v.1.15,2013-06-28 02:15:00,
2013-06-27 22:25:00,70.7,69.2,29.77,NNW,340,0.0,1.0,95,0.82,,,0.26,Wunderground v.1.15,2013-06-28 02:25:00,
2013-06-27 22:35:00,70.0,68.8,29.77,WSW,255,0.0,2.0,96,0.12,,,0.32,Wunderground v.1.15,2013-06-28 02:35:00,
2013-06-27 22:40:00,69.7,68.5,29.77,NE,52,0.0,1.0,96,0.06,,,0.32,Wunderground v.1.15,2013-06-28 02:40:00,
2013-06-27 22:50:00,69.5,68.6,29.77,NE,52,0.0,1.0,97,0.00,,,0.32,Wunderground v.1.15,2013-06-28 02:50:00,
2013-06-27 23:00:00,69.2,68.3,29.78,NE,52,0.0,1.0,97,0.00,,,0.32,Wunderground v.1.15,2013-06-28 03:00:00,
2013-06-27 23:05:00,68.9,68.0,29.77,North,5,0.0,5.0,97,0.00,,,0.32,Wunderground v.1.15,2013-06-28 03:05:00,
2013-06-27 23:15:00,68.8,67.9,29.77,NNW,343,0.0,5.0,97,0.00,,,0.32,Wunderground v.1.15,2013-06-28 03:15:00,
2013-06-27 23:24:00,68.8,67.9,29.77,NNW,346,0.0,5.0,97,0.00,,,0.32,Wunderground v.1.15,2013-06-28 03:24:00,
2013-06-27 23:30:00,68.7,67.8,29.76,NNW,346,0.0,5.0,97,0.00,,,0.32,Wunderground v.1.15,2013-06-28 03:30:00,
2013-06-27 23:40:00,68.4,67.8,29.76,NNW,346,0.0,5.0,98,0.00,,,0.32,Wunderground v.1.15,2013-06-28 03:40:00,
2013-06-27 23:45:00,68.3,67.7,29.76,NNW,346,0.0,5.0,98,0.00,,,0.32,Wunderground v.1.15,2013-06-28 03:45:00,
2013-06-27 23:54:00,68.2,67.6,29.77,NNW,346,0.0,5.0,98,0.00,,,0.32,Wunderground v.1.15,2013-06-28 03:54:00,